KHLB

Details ICAO KHLB
Name HILLENBRAND INDUSTRIES
Region United States
Timezone America/Indiana/Indianapolis (UTC-4.0)
Plans Departing 0
Arriving 0
Stats Elevation 973 ft / 297 m (AMSL)
Location 39.344518° -85.258425°
Runways 1
Magnetic Variation 5.372° W
Sunrise 2018-05-23 10:22:33 UTC / 2018-05-23 06:22:33 Local
Sunset 2018-05-24 00:55:55 UTC / 2018-05-23 20:55:55 Local
Advertisement - Login to hide

Runways

ID Width Length Bearing (true) Bearing (mag) Surface Threshold Offset Overrun Length
18 100 ft / 30 m 4,947 ft / 1,508 m 179.86° 185.23° Asphalt 500 ft / 152 m 0 ft / 0 m
36 100 ft / 30 m 4,947 ft / 1,508 m 359.86° 5.23° Asphalt 500 ft / 152 m 0 ft / 0 m

Map

Weather


0- 5 10 15 20 25 30 35+ Temperature / ° C

Clouds and Precipitation
Forecast for 2018-05-23 06:00 UTC. Updated 2 hours ago

Ground ~20,000 ft ~40,000 ft Winds

METAR

KHLB 230735Z AUTO 00000KT 10SM OVC048 16/16 A3008 RMK A01

TAF

Not found

Frequencies

Unicom 122.72 MHz UNICOM
Warning: Do not use this data for real-world aviation or navigation. No guarantee of current accuracy is given.